Golden Valley, AZ

11:07 AM MST on September 03, 2015 (GMT -0700)
Kingman | | Change Station
CLOSE
Current Station
Airport
Location: Kingman,
Elevation: 3448 ft
Nearby Weather Stations

Elev 3448 ft 35.26 °N, 113.93 °W | Updated 16 minutes ago

Clear
Clear
89 °F
Feels Like 89 °F
N
17
Wind Variable Wind from SW
Gusts 24 mph

Today
High -- | Low -- °F
--% Chance of Precip.
Yesterday
High -- | Low -- °F
Precip. -- in
6:09 AM 7:00 PM
Waning Gibbous, 68% visible
Pressure 29.77 in
Visibility 10.0 miles
Clouds Clear
Dew Point 39 °F
Humidity 17%
Rainfall 0.00 in
Snow Depth Not available.
UV 9 out of 12
Pollen 7.30 out of 12
Air Quality Not available.
Flu Activity Not available.
METAR KIGM 031751Z AUTO 23015G21KT 10SM CLR 32/04 A2999 RMK AO2 SLP081 T03170039 10317 20183 58002
Pressure 29.77 in
Visibility 10.0 miles
Clouds Clear
Dew Point 39 °F
Humidity 17%
Rainfall 0.00 in
Snow Depth Not available.
UV 9 out of 12
Pollen 7.30 out of 12
Air Quality Not available.
Flu Activity Not available.
METAR KIGM 031751Z AUTO 23015G21KT 10SM CLR 32/04 A2999 RMK AO2 SLP081 T03170039 10317 20183 58002

10-Day Weather Forecast

×

Almanac

Astronomy

Sep. 03, 2015 Rise Set
Actual Time
Civil Twilight
Nautical Twilight
Astronomical Twilight
Moon
Length of Visible Light
Length of Day
Tomorrow will be .
, % of the Moon is Illuminated

Today's Extremes

State Highs State Lows

Community

WunderPhotos

Upload Photos

1,851,995 photos uploaded!

WunderBlogs® & News

Nearby

Air Quality

  Air Quality AQ Index Pollutant
Not available.

Snow Depth

Station Depth Elevation

Earthquake Activity

City Distance Mag. Time & Date
Minimum magnitude displayed is 2.5.

Coastal Water Temperatures

Place Temperature

Stations

Nearby Weather Stations

Station Location Temp. Windchill Dew Point Humidity Wind Precip. Elev Updated Type